Terminal Aerodrome Forecast
Issued by NWS

Home | Current Version | Previous Version | Text Only | Print | Product List | Glossary On
Versions: 1 2 3 4 5 6 7 8 9 10 11 12 13 14 15 16 17 18 19 20 21
000
FTUS41 KBGM 282334
TAFITH
TAF
KITH 282334Z 2900/2924 16010KT P6SM BKN040
      TEMPO 2901/2904 -SHRA BKN025 OVC040
     FM290400 16010G18KT P6SM -RA OVC025
     FM290700 16010G18KT 4SM -RA BR OVC012
     FM291600 19010KT P6SM BKN025
     FM291900 23008KT P6SM SCT040=

USA.gov is the U.S. government's official web portal to all federal, state and local government web resources and services.